Hauptseite
Satellitenwetter 15-Tage PrognosenKlimaSeewetter Wirbelstürme Blitz FlughäfenFAQ Newsletter Über uns
Wetter : Europa Afrika Nordamerika Südamerika Asien Australien-Ozeanien Andere
Sprachen Kontakt

Newquay Cornwall, England

Breite: 50-26N, Länge: 005-00W, Höhe: 119 m


METAR: EGHQ 221950Z 08005KT CAVOK 13/09 Q1026
TAF: EGHQ 221700Z 2218/2221 03005KT 9999 FEW040

Zeit: 23:14 (22:14 UTC)

Beobachtung

Neuester Wetterbericht von vor 02 Stunden und 24 Minuten, um 19:50 UTC  
Wind 05 kt aus Ost
Temperatur 13°C
Luftfeuchtigkeit 77%
Luftdruck 1026 hPa
Sichtweite 10 km oder mehr
keine Wolken unter 1500 m und keine Kumulonimbus oder Gewitterwolken

Maßeinheiten ändern

Prognose

Neuester Wetterbericht von vor 05 Stunden und 14 Minuten, um 17:00 UTC  
Gültige Prognose vom 22 um 18 UTC bis 22 um 21 UTC
Wind 05 kt aus Nord/Nordost
Sichtweite 10 km oder mehr
leicht bewölkt in der Höhe von 4000 ft
Die Angaben auf diesen Webseiten unterliegen einer Erklärung über den Haftungsausschluss
Wetter : Europa Afrika Nordamerika Südamerika Asien Australien-Ozeanien Andere
Satellitenwetter 15-Tage PrognosenKlimaSeewetter Wirbelstürme Blitz FlughäfenFAQ Sprachen Kontakt Newsletter Über uns